sensor_id;sensor_type;location;lat;lon;timestamp;pressure;altitude;pressure_sealevel;temperature;humidity
35649;BME280;21768;48.562;13.414;2023-03-30T00:02:20;97343.63;;;8.61;71.41
35649;BME280;21768;48.562;13.414;2023-03-30T00:04:50;97339.59;;;8.63;71.40
35649;BME280;21768;48.562;13.414;2023-03-30T00:07:16;97324.50;;;8.63;71.59
35649;BME280;21768;48.562;13.414;2023-03-30T00:09:41;97319.38;;;8.62;71.43
35649;BME280;21768;48.562;13.414;2023-03-30T00:12:10;97300.13;;;8.62;71.82
35649;BME280;21768;48.562;13.414;2023-03-30T00:14:36;97296.97;;;8.65;71.74
35649;BME280;21768;48.562;13.414;2023-03-30T00:17:07;97311.94;;;8.63;71.80
35649;BME280;21768;48.562;13.414;2023-03-30T00:19:33;97299.47;;;8.65;71.85
35649;BME280;21768;48.562;13.414;2023-03-30T00:22:04;97313.00;;;8.67;71.72
35649;BME280;21768;48.562;13.414;2023-03-30T00:24:30;97312.22;;;8.68;71.79
35649;BME280;21768;48.562;13.414;2023-03-30T00:26:56;97302.28;;;8.69;71.62
35649;BME280;21768;48.562;13.414;2023-03-30T00:29:21;97305.78;;;8.71;71.75
35649;BME280;21768;48.562;13.414;2023-03-30T00:31:46;97295.84;;;8.73;71.92
35649;BME280;21768;48.562;13.414;2023-03-30T00:34:12;97295.84;;;8.73;71.93
35649;BME280;21768;48.562;13.414;2023-03-30T00:36:37;97304.25;;;8.73;71.86
35649;BME280;21768;48.562;13.414;2023-03-30T00:39:06;97296.59;;;8.72;71.90
35649;BME280;21768;48.562;13.414;2023-03-30T00:41:35;97293.00;;;8.68;72.03
35649;BME280;21768;48.562;13.414;2023-03-30T00:44:58;97302.75;;;8.64;72.09
35649;BME280;21768;48.562;13.414;2023-03-30T00:46:53;97307.78;;;8.64;71.97
35649;BME280;21768;48.562;13.414;2023-03-30T00:49:18;97298.81;;;8.56;71.98
35649;BME280;21768;48.562;13.414;2023-03-30T00:51:46;97288.09;;;8.46;72.04
35649;BME280;21768;48.562;13.414;2023-03-30T00:54:18;97288.56;;;8.41;72.42
35649;BME280;21768;48.562;13.414;2023-03-30T00:56:45;97292.50;;;8.37;72.41
35649;BME280;21768;48.562;13.414;2023-03-30T00:59:11;97304.94;;;8.36;72.37
35649;BME280;21768;48.562;13.414;2023-03-30T01:01:38;97299.28;;;8.38;72.62
35649;BME280;21768;48.562;13.414;2023-03-30T01:04:06;97283.53;;;8.41;72.33
35649;BME280;21768;48.562;13.414;2023-03-30T01:06:33;97283.63;;;8.42;72.24
35649;BME280;21768;48.562;13.414;2023-03-30T01:09:00;97271.38;;;8.47;72.27
35649;BME280;21768;48.562;13.414;2023-03-30T01:11:25;97279.78;;;8.47;71.98
35649;BME280;21768;48.562;13.414;2023-03-30T01:14:02;97276.28;;;8.45;72.22
35649;BME280;21768;48.562;13.414;2023-03-30T01:28:20;97263.19;;;8.49;72.43
35649;BME280;21768;48.562;13.414;2023-03-30T01:42:33;97250.72;;;8.63;72.50
35649;BME280;21768;48.562;13.414;2023-03-30T01:45:32;97242.41;;;8.64;72.50
35649;BME280;21768;48.562;13.414;2023-03-30T01:48:17;97244.81;;;8.62;72.45
35649;BME280;21768;48.562;13.414;2023-03-30T01:50:47;97240.44;;;8.60;72.55
35649;BME280;21768;48.562;13.414;2023-03-30T01:56:02;97218.13;;;8.52;72.84
35649;BME280;21768;48.562;13.414;2023-03-30T01:58:38;97220.53;;;8.51;72.77
35649;BME280;21768;48.562;13.414;2023-03-30T02:01:06;97214.75;;;8.52;72.64
35649;BME280;21768;48.562;13.414;2023-03-30T02:03:35;97216.38;;;8.51;72.78
35649;BME280;21768;48.562;13.414;2023-03-30T02:06:08;97214.84;;;8.53;72.91
35649;BME280;21768;48.562;13.414;2023-03-30T02:08:36;97222.41;;;8.53;72.63
35649;BME280;21768;48.562;13.414;2023-03-30T02:11:02;97225.47;;;8.49;72.76
35649;BME280;21768;48.562;13.414;2023-03-30T02:13:30;97220.88;;;8.44;72.86
35649;BME280;21768;48.562;13.414;2023-03-30T02:15:59;97215.19;;;8.46;72.85
35649;BME280;21768;48.562;13.414;2023-03-30T02:18:25;97209.63;;;8.50;72.91
35649;BME280;21768;48.562;13.414;2023-03-30T02:20:51;97208.75;;;8.50;72.89
35649;BME280;21768;48.562;13.414;2023-03-30T02:23:19;97203.59;;;8.48;72.93
35649;BME280;21768;48.562;13.414;2023-03-30T02:25:47;97199.34;;;8.47;72.84
35649;BME280;21768;48.562;13.414;2023-03-30T02:28:14;97194.31;;;8.47;72.75
35649;BME280;21768;48.562;13.414;2023-03-30T02:30:41;97194.31;;;8.47;72.84
35649;BME280;21768;48.562;13.414;2023-03-30T02:33:17;97192.66;;;8.48;73.16
35649;BME280;21768;48.562;13.414;2023-03-30T02:36:12;97204.47;;;8.49;72.88
35649;BME280;21768;48.562;13.414;2023-03-30T02:46:51;97196.72;;;8.58;72.86
35649;BME280;21768;48.562;13.414;2023-03-30T02:55:02;97188.19;;;8.56;72.77
35649;BME280;21768;48.562;13.414;2023-03-30T02:57:34;97175.59;;;8.56;72.80
35649;BME280;21768;48.562;13.414;2023-03-30T03:00:08;97180.31;;;8.51;72.72
35649;BME280;21768;48.562;13.414;2023-03-30T03:02:58;97182.28;;;8.43;72.95
35649;BME280;21768;48.562;13.414;2023-03-30T03:05:26;97183.16;;;8.44;72.73
35649;BME280;21768;48.562;13.414;2023-03-30T03:07:53;97182.28;;;8.43;72.83
35649;BME280;21768;48.562;13.414;2023-03-30T03:10:18;97177.47;;;8.46;73.05
35649;BME280;21768;48.562;13.414;2023-03-30T03:12:44;97179.34;;;8.49;73.03
35649;BME280;21768;48.562;13.414;2023-03-30T03:15:10;97182.72;;;8.49;72.92
35649;BME280;21768;48.562;13.414;2023-03-30T03:17:36;97173.53;;;8.50;73.08
35649;BME280;21768;48.562;13.414;2023-03-30T03:20:03;97172.78;;;8.51;72.96
35649;BME280;21768;48.562;13.414;2023-03-30T03:22:29;97177.91;;;8.52;73.05
35649;BME280;21768;48.562;13.414;2023-03-30T03:24:55;97173.00;;;8.54;73.08
35649;BME280;21768;48.562;13.414;2023-03-30T03:27:20;97180.63;;;8.56;73.02
35649;BME280;21768;48.562;13.414;2023-03-30T03:29:46;97178.69;;;8.51;73.02
35649;BME280;21768;48.562;13.414;2023-03-30T03:32:11;97193.00;;;8.52;72.93
35649;BME280;21768;48.562;13.414;2023-03-30T03:34:37;97193.66;;;8.50;72.94
35649;BME280;21768;48.562;13.414;2023-03-30T03:37:04;97174.97;;;8.46;73.19
35649;BME280;21768;48.562;13.414;2023-03-30T03:39:29;97173.97;;;8.44;73.05
35649;BME280;21768;48.562;13.414;2023-03-30T03:41:55;97173.59;;;8.38;73.19
35649;BME280;21768;48.562;13.414;2023-03-30T03:44:21;97183.94;;;8.31;73.18
35649;BME280;21768;48.562;13.414;2023-03-30T03:46:46;97187.53;;;8.23;73.17
35649;BME280;21768;48.562;13.414;2023-03-30T03:49:11;97171.28;;;8.18;73.32
35649;BME280;21768;48.562;13.414;2023-03-30T03:51:37;97166.94;;;8.15;73.31
35649;BME280;21768;48.562;13.414;2023-03-30T03:54:03;97158.31;;;8.12;73.50
35649;BME280;21768;48.562;13.414;2023-03-30T03:56:29;97164.63;;;8.07;73.40
35649;BME280;21768;48.562;13.414;2023-03-30T03:58:55;97164.19;;;8.01;73.47
35649;BME280;21768;48.562;13.414;2023-03-30T04:01:20;97163.97;;;7.98;73.62
35649;BME280;21768;48.562;13.414;2023-03-30T04:03:46;97160.59;;;7.97;73.79
35649;BME280;21768;48.562;13.414;2023-03-30T04:06:12;97150.31;;;7.94;73.55
35649;BME280;21768;48.562;13.414;2023-03-30T04:08:37;97140.41;;;7.84;73.71
35649;BME280;21768;48.562;13.414;2023-03-30T04:11:04;97150.03;;;7.78;73.73
35649;BME280;21768;48.562;13.414;2023-03-30T04:13:32;97143.69;;;7.71;73.99
35649;BME280;21768;48.562;13.414;2023-03-30T04:15:58;97137.56;;;7.68;74.02
35649;BME280;21768;48.562;13.414;2023-03-30T04:18:23;97137.25;;;7.63;73.98
35649;BME280;21768;48.562;13.414;2023-03-30T04:20:49;97136.91;;;7.59;74.01
35649;BME280;21768;48.562;13.414;2023-03-30T04:23:14;97135.81;;;7.55;74.25
35649;BME280;21768;48.562;13.414;2023-03-30T04:25:45;97135.81;;;7.55;74.20
35649;BME280;21768;48.562;13.414;2023-03-30T04:28:11;97130.81;;;7.55;74.20
35649;BME280;21768;48.562;13.414;2023-03-30T04:30:36;97149.47;;;7.59;74.32
35649;BME280;21768;48.562;13.414;2023-03-30T04:33:03;97160.06;;;7.66;74.10
35649;BME280;21768;48.562;13.414;2023-03-30T04:35:32;97155.91;;;7.78;74.18
35649;BME280;21768;48.562;13.414;2023-03-30T04:37:58;97156.69;;;7.89;74.26
35649;BME280;21768;48.562;13.414;2023-03-30T04:40:24;97159.59;;;7.95;73.59
35649;BME280;21768;48.562;13.414;2023-03-30T04:42:50;97165.72;;;7.99;73.90
35649;BME280;21768;48.562;13.414;2023-03-30T04:45:15;97169.00;;;7.98;73.74
35649;BME280;21768;48.562;13.414;2023-03-30T04:47:43;97152.28;;;7.98;73.84
35649;BME280;21768;48.562;13.414;2023-03-30T04:50:09;97150.44;;;7.96;73.88
35649;BME280;21768;48.562;13.414;2023-03-30T04:52:34;97146.63;;;8.01;73.63
35649;BME280;21768;48.562;13.414;2023-03-30T04:55:00;97157.88;;;8.06;73.50
35649;BME280;21768;48.562;13.414;2023-03-30T04:57:25;97172.50;;;8.11;73.52
35649;BME280;21768;48.562;13.414;2023-03-30T04:59:50;97173.47;;;8.13;73.41
35649;BME280;21768;48.562;13.414;2023-03-30T05:02:16;97168.13;;;8.09;73.48
35649;BME280;21768;48.562;13.414;2023-03-30T05:04:42;97175.66;;;8.09;73.68
35649;BME280;21768;48.562;13.414;2023-03-30T05:07:07;97179.94;;;8.10;73.58
35649;BME280;21768;48.562;13.414;2023-03-30T05:09:33;97182.97;;;8.17;73.46
35649;BME280;21768;48.562;13.414;2023-03-30T05:12:09;97176.28;;;8.18;73.20
35649;BME280;21768;48.562;13.414;2023-03-30T05:14:35;97150.88;;;8.13;73.54
35649;BME280;21768;48.562;13.414;2023-03-30T05:17:00;97152.91;;;8.19;73.55
35649;BME280;21768;48.562;13.414;2023-03-30T05:19:26;97162.63;;;8.26;73.46
35649;BME280;21768;48.562;13.414;2023-03-30T05:21:51;97174.53;;;8.29;73.56
35649;BME280;21768;48.562;13.414;2023-03-30T05:24:16;97164.59;;;8.30;73.67
35649;BME280;21768;48.562;13.414;2023-03-30T05:26:42;97159.81;;;8.33;73.58
35649;BME280;21768;48.562;13.414;2023-03-30T05:29:07;97167.47;;;8.35;74.16
35649;BME280;21768;48.562;13.414;2023-03-30T05:31:34;97164.50;;;8.40;73.74
35649;BME280;21768;48.562;13.414;2023-03-30T05:33:59;97166.44;;;8.44;73.80
35649;BME280;21768;48.562;13.414;2023-03-30T05:36:25;97170.03;;;8.48;73.71
35649;BME280;21768;48.562;13.414;2023-03-30T05:38:50;97180.22;;;8.49;73.75
35649;BME280;21768;48.562;13.414;2023-03-30T05:41:16;97200.00;;;8.57;73.96
35649;BME280;21768;48.562;13.414;2023-03-30T05:43:41;97212.00;;;8.61;73.61
35649;BME280;21768;48.562;13.414;2023-03-30T05:46:07;97224.69;;;8.62;73.71
35649;BME280;21768;48.562;13.414;2023-03-30T05:48:32;97212.63;;;8.70;73.67
35649;BME280;21768;48.562;13.414;2023-03-30T05:50:58;97212.28;;;8.77;73.71
35649;BME280;21768;48.562;13.414;2023-03-30T05:53:23;97213.25;;;8.79;73.50
35649;BME280;21768;48.562;13.414;2023-03-30T05:55:49;97212.59;;;8.81;73.51
35649;BME280;21768;48.562;13.414;2023-03-30T05:58:15;97208.44;;;8.82;73.65
35649;BME280;21768;48.562;13.414;2023-03-30T06:00:41;97222.88;;;8.84;73.51
35649;BME280;21768;48.562;13.414;2023-03-30T06:03:08;97220.16;;;8.81;73.68
35649;BME280;21768;48.562;13.414;2023-03-30T06:05:37;97228.56;;;8.82;73.67
35649;BME280;21768;48.562;13.414;2023-03-30T06:08:10;97230.41;;;8.84;73.78
35649;BME280;21768;48.562;13.414;2023-03-30T06:10:36;97254.69;;;8.84;73.53
35649;BME280;21768;48.562;13.414;2023-03-30T06:13:02;97258.97;;;8.85;73.80
35649;BME280;21768;48.562;13.414;2023-03-30T06:15:27;97257.53;;;8.89;73.50
35649;BME280;21768;48.562;13.414;2023-03-30T06:17:53;97250.88;;;8.89;73.25
35649;BME280;21768;48.562;13.414;2023-03-30T06:20:19;97251.53;;;8.86;73.62
35649;BME280;21768;48.562;13.414;2023-03-30T06:22:47;97253.94;;;8.85;73.75
35649;BME280;21768;48.562;13.414;2023-03-30T06:25:13;97251.22;;;8.82;73.70
35649;BME280;21768;48.562;13.414;2023-03-30T06:27:39;97251.97;;;8.81;74.03
35649;BME280;21768;48.562;13.414;2023-03-30T06:30:06;97244.75;;;8.85;73.97
35649;BME280;21768;48.562;13.414;2023-03-30T06:32:33;97240.09;;;8.92;73.50
35649;BME280;21768;48.562;13.414;2023-03-30T06:34:59;97239.66;;;8.97;73.71
35649;BME280;21768;48.562;13.414;2023-03-30T06:37:24;97236.81;;;9.04;73.73
35649;BME280;21768;48.562;13.414;2023-03-30T06:39:50;97237.22;;;9.10;73.66
35649;BME280;21768;48.562;13.414;2023-03-30T06:42:15;97249.91;;;9.12;73.64
35649;BME280;21768;48.562;13.414;2023-03-30T06:44:40;97229.28;;;9.17;73.70
35649;BME280;21768;48.562;13.414;2023-03-30T06:47:06;97237.81;;;9.19;73.50
35649;BME280;21768;48.562;13.414;2023-03-30T06:49:31;97233.56;;;9.18;73.72
35649;BME280;21768;48.562;13.414;2023-03-30T06:51:57;97226.88;;;9.19;73.53
35649;BME280;21768;48.562;13.414;2023-03-30T06:54:23;97219.22;;;9.17;73.36
35649;BME280;21768;48.562;13.414;2023-03-30T06:56:49;97223.31;;;9.15;73.73
35649;BME280;21768;48.562;13.414;2023-03-30T06:59:16;97224.97;;;9.15;73.89
35649;BME280;21768;48.562;13.414;2023-03-30T07:01:42;97220.19;;;9.19;73.82
35649;BME280;21768;48.562;13.414;2023-03-30T07:04:08;97219.84;;;9.27;73.73
35649;BME280;21768;48.562;13.414;2023-03-30T07:06:33;97222.00;;;9.34;73.84
35649;BME280;21768;48.562;13.414;2023-03-30T07:08:59;97223.97;;;9.38;73.90
35649;BME280;21768;48.562;13.414;2023-03-30T07:11:25;97211.75;;;9.44;73.91
35649;BME280;21768;48.562;13.414;2023-03-30T07:13:51;97226.09;;;9.45;73.82
35649;BME280;21768;48.562;13.414;2023-03-30T07:16:18;97235.72;;;9.50;73.64
35649;BME280;21768;48.562;13.414;2023-03-30T07:18:44;97220.59;;;9.50;73.04
35649;BME280;21768;48.562;13.414;2023-03-30T07:21:09;97228.72;;;9.46;73.55
35649;BME280;21768;48.562;13.414;2023-03-30T07:23:34;97228.50;;;9.43;73.46
35649;BME280;21768;48.562;13.414;2023-03-30T07:26:00;97226.88;;;9.44;73.80
35649;BME280;21768;48.562;13.414;2023-03-30T07:28:26;97228.50;;;9.43;73.23
35649;BME280;21768;48.562;13.414;2023-03-30T07:30:51;97220.47;;;9.36;73.79
35649;BME280;21768;48.562;13.414;2023-03-30T07:33:16;97221.44;;;9.38;73.68
35649;BME280;21768;48.562;13.414;2023-03-30T07:35:46;97224.25;;;9.42;73.70
35649;BME280;21768;48.562;13.414;2023-03-30T07:38:12;97216.31;;;9.36;73.92
35649;BME280;21768;48.562;13.414;2023-03-30T07:40:38;97208.00;;;9.37;73.97
35649;BME280;21768;48.562;13.414;2023-03-30T07:43:05;97195.19;;;9.34;73.85
35649;BME280;21768;48.562;13.414;2023-03-30T07:45:31;97186.78;;;9.34;74.00
35649;BME280;21768;48.562;13.414;2023-03-30T07:47:56;97185.22;;;9.36;74.51
35649;BME280;21768;48.562;13.414;2023-03-30T07:50:22;97186.31;;;9.39;74.50
35649;BME280;21768;48.562;13.414;2023-03-30T07:52:50;97181.84;;;9.48;74.64
35649;BME280;21768;48.562;13.414;2023-03-30T07:55:15;97190.13;;;9.59;74.55
35649;BME280;21768;48.562;13.414;2023-03-30T07:57:41;97167.25;;;9.69;74.55
35649;BME280;21768;48.562;13.414;2023-03-30T08:00:07;97163.78;;;9.80;74.52
35649;BME280;21768;48.562;13.414;2023-03-30T08:02:38;97175.78;;;9.98;74.27
35649;BME280;21768;48.562;13.414;2023-03-30T08:05:03;97164.94;;;10.12;74.43
35649;BME280;21768;48.562;13.414;2023-03-30T08:07:29;97171.16;;;10.30;74.55
35649;BME280;21768;48.562;13.414;2023-03-30T08:09:54;97189.06;;;10.48;74.42
35649;BME280;21768;48.562;13.414;2023-03-30T08:12:19;97176.53;;;10.63;74.40
35649;BME280;21768;48.562;13.414;2023-03-30T08:14:45;97163.28;;;10.80;74.17
35649;BME280;21768;48.562;13.414;2023-03-30T08:17:10;97149.22;;;10.98;73.59
35649;BME280;21768;48.562;13.414;2023-03-30T08:19:36;97150.03;;;11.12;73.36
35649;BME280;21768;48.562;13.414;2023-03-30T08:22:02;97153.25;;;11.24;73.25
35649;BME280;21768;48.562;13.414;2023-03-30T08:24:27;97157.38;;;11.37;73.23
35649;BME280;21768;48.562;13.414;2023-03-30T08:26:53;97136.53;;;11.41;73.31
35649;BME280;21768;48.562;13.414;2023-03-30T08:29:18;97125.03;;;11.46;73.13
35649;BME280;21768;48.562;13.414;2023-03-30T08:31:44;97127.75;;;11.49;73.16
35649;BME280;21768;48.562;13.414;2023-03-30T08:34:10;97123.06;;;11.55;73.01
35649;BME280;21768;48.562;13.414;2023-03-30T08:36:35;97127.41;;;11.57;73.34
35649;BME280;21768;48.562;13.414;2023-03-30T08:39:01;97120.59;;;11.71;73.25
35649;BME280;21768;48.562;13.414;2023-03-30T08:46:57;97105.47;;;12.66;72.10
35649;BME280;21768;48.562;13.414;2023-03-30T08:49:25;97089.41;;;12.98;71.82
35649;BME280;21768;48.562;13.414;2023-03-30T08:51:53;97084.03;;;13.42;71.35
35649;BME280;21768;48.562;13.414;2023-03-30T08:54:20;97061.72;;;14.06;70.07
35649;BME280;21768;48.562;13.414;2023-03-30T08:57:17;97052.53;;;14.45;69.60
35649;BME280;21768;48.562;13.414;2023-03-30T08:59:51;97049.59;;;14.74;68.84
35649;BME280;21768;48.562;13.414;2023-03-30T09:02:33;97046.66;;;14.84;68.75
35649;BME280;21768;48.562;13.414;2023-03-30T09:07:40;97050.13;;;14.48;69.61
35649;BME280;21768;48.562;13.414;2023-03-30T09:10:11;97049.13;;;14.26;70.35
35649;BME280;21768;48.562;13.414;2023-03-30T09:13:21;97036.91;;;14.18;70.98
35649;BME280;21768;48.562;13.414;2023-03-30T09:15:35;97018.34;;;14.19;71.04
35649;BME280;21768;48.562;13.414;2023-03-30T09:18:23;97010.72;;;14.19;71.09
35649;BME280;21768;48.562;13.414;2023-03-30T09:20:51;96998.69;;;14.15;71.20
35649;BME280;21768;48.562;13.414;2023-03-30T09:23:18;97001.97;;;14.12;71.45
35649;BME280;21768;48.562;13.414;2023-03-30T09:31:23;96996.47;;;14.59;70.76
35649;BME280;21768;48.562;13.414;2023-03-30T09:34:04;97003.22;;;14.59;70.36
35649;BME280;21768;48.562;13.414;2023-03-30T09:39:22;96994.41;;;14.51;70.81
35649;BME280;21768;48.562;13.414;2023-03-30T09:45:25;96999.13;;;14.82;70.31
35649;BME280;21768;48.562;13.414;2023-03-30T09:47:32;97002.81;;;14.90;69.96
35649;BME280;21768;48.562;13.414;2023-03-30T09:50:04;97000.47;;;14.94;70.08
35649;BME280;21768;48.562;13.414;2023-03-30T09:52:31;97003.09;;;14.96;70.31
35649;BME280;21768;48.562;13.414;2023-03-30T09:57:44;96993.47;;;14.89;70.71
35649;BME280;21768;48.562;13.414;2023-03-30T10:02:59;96988.97;;;14.82;71.25
35649;BME280;21768;48.562;13.414;2023-03-30T10:05:27;96966.50;;;14.72;71.51
35649;BME280;21768;48.562;13.414;2023-03-30T10:08:18;96968.50;;;14.58;71.77
35649;BME280;21768;48.562;13.414;2023-03-30T10:10:44;96956.34;;;14.51;72.22
35649;BME280;21768;48.562;13.414;2023-03-30T10:15:37;96947.19;;;14.35;72.48
35649;BME280;21768;48.562;13.414;2023-03-30T10:20:49;96980.75;;;14.29;72.75
35649;BME280;21768;48.562;13.414;2023-03-30T10:23:17;96978.38;;;14.33;72.78
35649;BME280;21768;48.562;13.414;2023-03-30T10:25:45;96954.09;;;14.39;72.91
35649;BME280;21768;48.562;13.414;2023-03-30T10:28:19;96950.09;;;14.63;72.41
35649;BME280;21768;48.562;13.414;2023-03-30T10:31:13;96918.31;;;14.94;72.22
35649;BME280;21768;48.562;13.414;2023-03-30T10:33:42;96914.25;;;15.63;71.17
35649;BME280;21768;48.562;13.414;2023-03-30T10:36:09;96898.06;;;16.31;69.83
35649;BME280;21768;48.562;13.414;2023-03-30T10:38:36;96894.81;;;16.60;69.00
35649;BME280;21768;48.562;13.414;2023-03-30T10:41:12;96900.66;;;16.82;68.57
35649;BME280;21768;48.562;13.414;2023-03-30T10:43:40;96902.53;;;17.14;67.40
35649;BME280;21768;48.562;13.414;2023-03-30T10:46:12;96896.94;;;17.53;65.89
35649;BME280;21768;48.562;13.414;2023-03-30T10:56:33;96878.59;;;21.05;56.09
35649;BME280;21768;48.562;13.414;2023-03-30T11:07:03;96900.94;;;17.73;62.05
35649;BME280;21768;48.562;13.414;2023-03-30T11:09:37;96900.81;;;17.42;63.22
35649;BME280;21768;48.562;13.414;2023-03-30T11:12:16;96904.47;;;17.21;63.40
35649;BME280;21768;48.562;13.414;2023-03-30T11:14:52;96906.03;;;16.91;63.76
35649;BME280;21768;48.562;13.414;2023-03-30T11:17:31;96903.19;;;16.56;65.11
35649;BME280;21768;48.562;13.414;2023-03-30T11:20:17;96885.75;;;16.43;65.86
35649;BME280;21768;48.562;13.414;2023-03-30T11:23:00;96892.47;;;16.41;66.10
35649;BME280;21768;48.562;13.414;2023-03-30T11:25:44;96889.25;;;16.47;66.00
35649;BME280;21768;48.562;13.414;2023-03-30T11:28:26;96888.41;;;16.46;66.23
35649;BME280;21768;48.562;13.414;2023-03-30T11:31:02;96882.06;;;16.35;66.39
35649;BME280;21768;48.562;13.414;2023-03-30T11:33:37;96891.19;;;16.28;66.76
35649;BME280;21768;48.562;13.414;2023-03-30T11:36:19;96889.78;;;16.13;66.50
35649;BME280;21768;48.562;13.414;2023-03-30T11:39:02;96893.06;;;16.10;66.18
35649;BME280;21768;48.562;13.414;2023-03-30T11:44:02;96887.97;;;16.10;65.74
35649;BME280;21768;48.562;13.414;2023-03-30T11:49:11;96901.94;;;16.45;65.57
35649;BME280;21768;48.562;13.414;2023-03-30T12:02:47;96889.78;;;18.62;62.57
35649;BME280;21768;48.562;13.414;2023-03-30T12:05:37;96887.94;;;18.58;61.83
35649;BME280;21768;48.562;13.414;2023-03-30T12:11:32;96891.19;;;19.20;60.44
35649;BME280;21768;48.562;13.414;2023-03-30T12:13:49;96887.81;;;19.21;60.11
35649;BME280;21768;48.562;13.414;2023-03-30T12:16:19;96901.66;;;19.29;60.09
35649;BME280;21768;48.562;13.414;2023-03-30T12:24:28;96925.88;;;18.43;60.35
35649;BME280;21768;48.562;13.414;2023-03-30T12:26:57;96927.63;;;18.14;61.11
35649;BME280;21768;48.562;13.414;2023-03-30T12:29:23;96933.25;;;18.01;61.18
35649;BME280;21768;48.562;13.414;2023-03-30T12:34:18;96936.16;;;17.58;63.45
35649;BME280;21768;48.562;13.414;2023-03-30T12:42:25;96945.50;;;17.02;65.37
35649;BME280;21768;48.562;13.414;2023-03-30T12:50:30;96955.16;;;16.63;67.14
35649;BME280;21768;48.562;13.414;2023-03-30T12:58:42;96990.78;;;16.38;67.16
35649;BME280;21768;48.562;13.414;2023-03-30T13:02:18;96993.84;;;16.27;67.08
35649;BME280;21768;48.562;13.414;2023-03-30T13:04:13;96992.25;;;16.07;69.03
35649;BME280;21768;48.562;13.414;2023-03-30T13:06:47;96982.97;;;15.87;69.34
35649;BME280;21768;48.562;13.414;2023-03-30T13:27:20;96988.38;;;14.89;72.30
35649;BME280;21768;48.562;13.414;2023-03-30T13:35:15;96950.94;;;14.64;72.47
35649;BME280;21768;48.562;13.414;2023-03-30T13:38:01;96961.69;;;14.57;72.52
35649;BME280;21768;48.562;13.414;2023-03-30T13:43:52;96954.03;;;14.38;72.49
35649;BME280;21768;48.562;13.414;2023-03-30T13:46:30;96949.72;;;14.35;72.79
35649;BME280;21768;48.562;13.414;2023-03-30T13:51:38;96944.38;;;14.29;72.59
35649;BME280;21768;48.562;13.414;2023-03-30T13:56:46;96928.47;;;14.14;72.18
35649;BME280;21768;48.562;13.414;2023-03-30T13:59:15;96932.66;;;14.13;72.15
35649;BME280;21768;48.562;13.414;2023-03-30T14:01:49;96931.06;;;14.15;72.10
35649;BME280;21768;48.562;13.414;2023-03-30T14:04:15;96936.06;;;14.14;72.61
35649;BME280;21768;48.562;13.414;2023-03-30T14:06:46;96931.88;;;14.14;72.69
35649;BME280;21768;48.562;13.414;2023-03-30T14:09:20;96927.81;;;14.18;72.69
35649;BME280;21768;48.562;13.414;2023-03-30T14:11:49;96925.59;;;14.25;72.74
35649;BME280;21768;48.562;13.414;2023-03-30T14:14:36;96936.09;;;14.33;72.75
35649;BME280;21768;48.562;13.414;2023-03-30T14:17:17;96951.66;;;14.41;72.69
35649;BME280;21768;48.562;13.414;2023-03-30T14:20:07;96961.22;;;14.46;72.37
35649;BME280;21768;48.562;13.414;2023-03-30T14:22:40;96954.53;;;14.48;72.44
35649;BME280;21768;48.562;13.414;2023-03-30T14:25:33;96970.56;;;14.47;72.49
35649;BME280;21768;48.562;13.414;2023-03-30T14:28:11;96987.09;;;14.39;72.88
35649;BME280;21768;48.562;13.414;2023-03-30T14:30:36;96994.25;;;14.28;73.16
35649;BME280;21768;48.562;13.414;2023-03-30T14:33:10;96984.69;;;14.23;73.45
35649;BME280;21768;48.562;13.414;2023-03-30T14:35:59;96988.41;;;14.12;73.17
35649;BME280;21768;48.562;13.414;2023-03-30T14:38:27;96986.69;;;14.11;73.07
35649;BME280;21768;48.562;13.414;2023-03-30T14:40:54;96989.75;;;14.04;72.77
35649;BME280;21768;48.562;13.414;2023-03-30T14:43:31;96985.22;;;13.96;72.59
35649;BME280;21768;48.562;13.414;2023-03-30T14:45:59;96986.41;;;13.85;72.74
35649;BME280;21768;48.562;13.414;2023-03-30T14:48:32;97004.03;;;13.82;72.17
35649;BME280;21768;48.562;13.414;2023-03-30T14:51:03;97018.56;;;13.69;72.16
35649;BME280;21768;48.562;13.414;2023-03-30T14:53:32;97014.75;;;13.59;72.75
35649;BME280;21768;48.562;13.414;2023-03-30T14:55:59;97015.41;;;13.55;72.80
35649;BME280;21768;48.562;13.414;2023-03-30T14:58:27;97006.28;;;13.41;73.55
35649;BME280;21768;48.562;13.414;2023-03-30T15:01:05;97005.84;;;13.32;74.12
35649;BME280;21768;48.562;13.414;2023-03-30T15:03:35;96989.47;;;13.25;74.39
35649;BME280;21768;48.562;13.414;2023-03-30T15:06:05;96972.69;;;13.27;74.53
35649;BME280;21768;48.562;13.414;2023-03-30T15:08:32;96979.34;;;13.25;74.47
35649;BME280;21768;48.562;13.414;2023-03-30T15:11:07;96974.22;;;13.23;74.41
35649;BME280;21768;48.562;13.414;2023-03-30T15:13:39;96981.03;;;13.24;74.53
35649;BME280;21768;48.562;13.414;2023-03-30T15:16:06;96990.84;;;13.18;74.76
35649;BME280;21768;48.562;13.414;2023-03-30T15:18:33;96994.78;;;13.13;74.95
35649;BME280;21768;48.562;13.414;2023-03-30T15:21:00;96984.38;;;13.07;74.68
35649;BME280;21768;48.562;13.414;2023-03-30T15:23:45;96977.34;;;13.02;74.79
35649;BME280;21768;48.562;13.414;2023-03-30T15:26:11;96982.34;;;13.00;74.99
35649;BME280;21768;48.562;13.414;2023-03-30T15:28:50;96990.34;;;12.91;75.22
35649;BME280;21768;48.562;13.414;2023-03-30T15:31:18;96982.59;;;12.88;75.27
35649;BME280;21768;48.562;13.414;2023-03-30T15:33:47;96976.66;;;12.88;75.23
35649;BME280;21768;48.562;13.414;2023-03-30T15:36:22;96975.75;;;12.86;75.41
35649;BME280;21768;48.562;13.414;2023-03-30T15:38:56;96974.88;;;12.85;75.30
35649;BME280;21768;48.562;13.414;2023-03-30T15:41:44;96960.41;;;12.83;75.22
35649;BME280;21768;48.562;13.414;2023-03-30T15:44:15;96962.94;;;12.83;75.51
35649;BME280;21768;48.562;13.414;2023-03-30T15:46:42;96952.88;;;12.84;75.50
35649;BME280;21768;48.562;13.414;2023-03-30T15:49:12;96946.00;;;12.82;75.51
35649;BME280;21768;48.562;13.414;2023-03-30T15:51:43;96948.38;;;12.79;75.56